地図

経路データ

SID SEASON NUMBER BASIN SUBBASIN NAME ISO_TIME NATURE LAT LON WMO_WIND WMO_PRES WMO_AGENCY TRACK_TYPE DIST2LAND LANDFALL IFLAG USA_AGENCY USA_ATCF_ID USA_LAT USA_LON USA_RECORD USA_STATUS USA_WIND USA_PRES USA_SSHS USA_R34_NE USA_R34_SE USA_R34_SW USA_R34_NW USA_R50_NE USA_R50_SE USA_R50_SW USA_R50_NW USA_R64_NE USA_R64_SE USA_R64_SW USA_R64_NW USA_POCI USA_ROCI USA_RMW USA_EYE TOKYO_LAT TOKYO_LON TOKYO_GRADE TOKYO_WIND TOKYO_PRES TOKYO_R50_DIR TOKYO_R50_LONG TOKYO_R50_SHORT TOKYO_R30_DIR TOKYO_R30_LONG TOKYO_R30_SHORT TOKYO_LAND CMA_LAT CMA_LON CMA_CAT CMA_WIND CMA_PRES HKO_LAT HKO_LON HKO_CAT HKO_WIND HKO_PRES NEWDELHI_LAT NEWDELHI_LON NEWDELHI_GRADE NEWDELHI_WIND NEWDELHI_PRES NEWDELHI_CI NEWDELHI_DP NEWDELHI_POCI REUNION_LAT REUNION_LON REUNION_TYPE REUNION_WIND REUNION_PRES REUNION_TNUM REUNION_CI REUNION_RMW REUNION_R34_NE REUNION_R34_SE REUNION_R34_SW REUNION_R34_NW REUNION_R50_NE REUNION_R50_SE REUNION_R50_SW REUNION_R50_NW REUNION_R64_NE REUNION_R64_SE REUNION_R64_SW REUNION_R64_NW BOM_LAT BOM_LON BOM_TYPE BOM_WIND BOM_PRES BOM_TNUM BOM_CI BOM_RMW BOM_R34_NE BOM_R34_SE BOM_R34_SW BOM_R34_NW BOM_R50_NE BOM_R50_SE BOM_R50_SW BOM_R50_NW BOM_R64_NE BOM_R64_SE BOM_R64_SW BOM_R64_NW BOM_ROCI BOM_POCI BOM_EYE BOM_POS_METHOD BOM_PRES_METHOD NADI_LAT NADI_LON NADI_CAT NADI_WIND NADI_PRES WELLINGTON_LAT WELLINGTON_LON WELLINGTON_WIND WELLINGTON_PRES DS824_LAT DS824_LON DS824_STAGE DS824_WIND DS824_PRES TD9636_LAT TD9636_LON TD9636_STAGE TD9636_WIND TD9636_PRES TD9635_LAT TD9635_LON TD9635_WIND TD9635_PRES TD9635_ROCI NEUMANN_LAT NEUMANN_LON NEUMANN_CLASS NEUMANN_WIND NEUMANN_PRES MLC_LAT MLC_LON MLC_CLASS MLC_WIND MLC_PRES USA_GUST BOM_GUST BOM_GUST_PER REUNION_GUST REUNION_GUST_PER USA_SEAHGT USA_SEARAD_NE USA_SEARAD_SE USA_SEARAD_SW USA_SEARAD_NW STORM_SPEED STORM_DIR
1954012S16184 1954 4 SP MM NOT_NAMED 1954-01-12 00:00:00 TS -16.0000 184.000 main 438 423 O________OO___ jtwc_sh SH041954 -16.0000 -176.000 -1 -16.0000 184.000 TC -16.0000 -176.000 2 7 353
1954012S16184 1954 4 SP MM NOT_NAMED 1954-01-12 03:00:00 TS -15.6467 183.954 main 417 408 P________PP___ SH041954 -15.6325 -176.033 -1 -15.6325 -176.033 TC -15.6751 -176.072 2 7 351
1954012S16184 1954 4 SP MM NOT_NAMED 1954-01-12 06:00:00 TS -15.3201 183.882 main 408 403 O________OP___ jtwc_sh SH041954 -15.3000 -176.100 -1 -15.3000 183.900 TC -15.3602 -176.155 2 6 343
1954012S16184 1954 4 SP MM NOT_NAMED 1954-01-12 09:00:00 TS -15.0400 183.761 main 403 403 P________PP___ SH041954 -15.0275 -176.228 -1 -15.0275 -176.228 TC -15.0651 -176.261 2 6 332
1954012S16184 1954 4 SP MM NOT_NAMED 1954-01-12 12:00:00 TS -14.8000 183.600 main 414 411 O________OO___ jtwc_sh SH041954 -14.8000 -176.400 -1 -14.8000 183.600 TC -14.8000 -176.400 2 6 325
1954012S16184 1954 4 SP MM NOT_NAMED 1954-01-12 15:00:00 TS -14.5763 183.425 main 415 407 P________PP___ SH041954 -14.5774 -176.570 -1 -14.5774 -176.570 TC -14.5741 -176.584 2 6 316
1954012S16184 1954 4 SP MM NOT_NAMED 1954-01-12 18:00:00 TS -14.3982 183.192 main 407 385 O________OP___ jtwc_sh SH041954 -14.4000 -176.800 -1 -14.4000 183.200 TC -14.3945 -176.823 2 6 301
1954012S16184 1954 4 SP MM NOT_NAMED 1954-01-12 21:00:00 TS -14.2692 182.888 main 385 357 P________PP___ SH041954 -14.2699 -177.105 -1 -14.2699 -177.105 TC -14.2676 -177.125 2 7 286
1954012S16184 1954 4 SP MM NOT_NAMED 1954-01-13 00:00:00 TS -14.2000 182.500 main 357 325 O________OO___ jtwc_sh SH041954 -14.2000 -177.500 -1 -14.2000 182.500 TC -14.2000 -177.500 2 8 277
1954012S16184 1954 4 SP MM NOT_NAMED 1954-01-13 03:00:00 TS -14.1722 182.032 main 317 282 P________PP___ SH041954 -14.1700 -177.970 -1 -14.1700 -177.970 TC -14.1767 -177.965 2 10 270
1954012S16184 1954 4 SP MM NOT_NAMED 1954-01-13 06:00:00 TS -14.2035 181.501 main 282 243 O________OP___ jtwc_sh SH041954 -14.2000 -178.500 -1 -14.2000 181.500 TC -14.2106 -178.497 2 11 264
1954012S16184 1954 4 SP MM NOT_NAMED 1954-01-13 09:00:00 TS -14.2814 180.948 main 238 208 P________PP___ SH041954 -14.2775 -179.050 -1 -14.2775 -179.050 TC -14.2892 -179.056 2 11 260
1954012S16184 1954 4 SP MM NOT_NAMED 1954-01-13 12:00:00 TS -14.4000 180.400 main 208 190 O________OO___ jtwc_sh SH041954 -14.4000 -179.600 -1 -14.4000 180.400 TC -14.4000 -179.600 2 11 256
1954012S16184 1954 4 SP MM NOT_NAMED 1954-01-13 15:00:00 TS -14.5299 179.885 main 190 170 P________PP___ SH041954 -14.5424 179.878 -1 -14.5424 179.878 TC -14.5049 179.900 2 10 254
1954012S16184 1954 4 SP MM NOT_NAMED 1954-01-13 18:00:00 TS -14.6800 179.408 main 173 169 O________OP___ jtwc_sh SH041954 -14.7000 179.400 -1 -14.7000 179.400 TC -14.6399 179.425 2 9 251
1954012S16184 1954 4 SP MM NOT_NAMED 1954-01-13 21:00:00 TS -14.8249 178.976 main 176 168 P________PP___ SH041954 -14.8349 178.970 -1 -14.8349 178.970 TC -14.8050 178.988 2 8 248
1954012S16184 1954 4 SP MM NOT_NAMED 1954-01-14 00:00:00 TS -15.0000 178.600 main 173 159 O________OO___ jtwc_sh SH041954 -15.0000 178.600 -1 -15.0000 178.600 TC -15.0000 178.600 2 8 239
1954012S16184 1954 4 SP MM NOT_NAMED 1954-01-14 03:00:00 TS -15.2262 178.274 main 163 144 P________PP___ SH041954 -15.2349 178.277 -1 -15.2349 178.277 TC -15.2086 178.266 2 8 230
1954012S16184 1954 4 SP MM NOT_NAMED 1954-01-14 06:00:00 TS -15.4823 177.994 main 144 134 O________OP___ jtwc_sh SH041954 -15.5000 178.000 -1 -15.5000 178.000 TC -15.4470 177.982 2 7 226
1954012S16184 1954 4 SP MM NOT_NAMED 1954-01-14 09:00:00 TS -15.7323 177.734 main 140 131 P________PP___ SH041954 -15.7425 177.735 -1 -15.7425 177.735 TC -15.7119 177.732 2 7 223
1954012S16184 1954 4 SP MM NOT_NAMED 1954-01-14 12:00:00 TS -16.0000 177.500 main 132 126 O________OO___ jtwc_sh SH041954 -16.0000 177.500 -1 -16.0000 177.500 TC -16.0000 177.500 2 7 218
1954012S16184 1954 4 SP MM NOT_NAMED 1954-01-14 15:00:00 TS -16.2856 177.288 main 135 109 P________PP___ SH041954 -16.2849 177.300 -1 -16.2849 177.300 TC -16.2870 177.264 2 7 214
1954012S16184 1954 4 SP MM NOT_NAMED 1954-01-14 18:00:00 TS -16.5991 177.081 main 109 92 O________OP___ jtwc_sh SH041954 -16.6000 177.100 -1 -16.6000 177.100 TC -16.5973 177.042 2 8 213
1954012S16184 1954 4 SP MM NOT_NAMED 1954-01-14 21:00:00 TS -16.9346 176.846 main 100 84 P________PP___ SH041954 -16.9350 176.857 -1 -16.9350 176.857 TC -16.9339 176.824 2 8 213
1954012S16184 1954 4 SP MM NOT_NAMED 1954-01-15 00:00:00 TS -17.3000 176.600 main 91 87 O________OO___ jtwc_sh SH041954 -17.3000 176.600 -1 -17.3000 176.600 TC -17.3000 176.600 2 9 212
1954012S16184 1954 4 SP MM NOT_NAMED 1954-01-15 03:00:00 TS -17.6874 176.347 main 101 97 P________PP___ SH041954 -17.6850 176.350 -1 -17.6850 176.350 TC -17.6923 176.341 2 9 211
1954012S16184 1954 4 SP MM NOT_NAMED 1954-01-15 06:00:00 TS -18.1042 176.093 main 116 116 O________OP___ jtwc_sh SH041954 -18.1000 176.100 -1 -18.1000 176.100 TC -18.1127 176.078 2 10 209
1954012S16184 1954 4 SP MM NOT_NAMED 1954-01-15 09:00:00 TS -18.5456 175.837 main 158 158 P________PP___ SH041954 -18.5425 175.842 -1 -18.5425 175.842 TC -18.5517 175.825 2 10 208
1954012S16184 1954 4 SP MM NOT_NAMED 1954-01-15 12:00:00 TS -19.0000 175.600 main 202 202 O________OO___ jtwc_sh SH041954 -19.0000 175.600 -1 -19.0000 175.600 TC -19.0000 175.600 2 10 205
1954012S16184 1954 4 SP MM NOT_NAMED 1954-01-15 15:00:00 TS -19.4500 175.389 main 245 245 P________PP___ SH041954 -19.4500 175.377 -1 -19.4500 175.377 TC -19.4499 175.413 2 10 202
1954012S16184 1954 4 SP MM NOT_NAMED 1954-01-15 18:00:00 TS -19.9000 175.219 main 298 298 O________OP___ jtwc_sh SH041954 -19.9000 175.200 -1 -19.9000 175.200 TC -19.8999 175.258 2 9 197
1954012S16184 1954 4 SP MM NOT_NAMED 1954-01-15 21:00:00 TS -20.3500 175.096 main 337 337 P________PP___ SH041954 -20.3500 175.083 -1 -20.3500 175.083 TC -20.3499 175.124 2 9 193
1954012S16184 1954 4 SP MM NOT_NAMED 1954-01-16 00:00:00 TS -20.8000 175.000 main 386 O________OO___ jtwc_sh SH041954 -20.8000 175.000 -1 -20.8000 175.000 TC -20.8000 175.000 2 9 191

デジタル台風データ・検索

IBTrACS Databaseについて

本データベースは、米国NOAAが公開する1842年以降の世界の熱帯低気圧のベストトラックデータアーカイブInternational Best Track Archive for Climate Stewardship (IBTrACS)を、ウェブで閲覧しやすい形式に変換したものです。

最終更新日:2021-12-06